Flight Track Log - Related Links

Times and Time Zones

All times are in EDT time to prevent confusion due to time zone crossing. See the N804JJ flight status page for this flight to view local times or setup timezone preferences in your user account.

Time Position Orientation Groundspeed Altitude Reporting Facility
EDT Latitude Longitude Course Direction KTS MPH feet Rate Location/Type
Tue 11:34:18 AM 34.0333 -84.5333 309° West 218 251 3,600  Level Atlanta TRACON
Tue 11:36:18 AM 34.1000 -84.6333 309° West 263 303 7,000 1,133 Climbing Atlanta TRACON
Tue 11:37:18 AM 34.0667 -84.7167 244° Southwest 281 323 7,000  Level Atlanta TRACON
Tue 11:38:18 AM 34.0167 -84.8000 234° Southwest 288 331 7,000 1,050 Level Atlanta TRACON
Tue 11:39:18 AM 33.9667 -84.8667 228° Southwest 279 321 9,100 1,550 Climbing Atlanta TRACON
Tue 11:40:18 AM 33.9167 -84.9333 228° Southwest 306 352 10,100 1,469 Climbing Atlanta TRACON
Tue 11:41:45 AM 33.8317 -85.0642 232° Southwest 331 381 12,700 1,714 Climbing Atlanta Center
Tue 11:42:45 AM 33.7911 -85.1636 244° Southwest 336 387 14,300 1,900 Climbing Atlanta Center
Tue 11:43:45 AM 33.7569 -85.2681 249° West 337 388 16,500 1,750 Climbing Atlanta Center
Tue 11:44:45 AM 33.7369 -85.3703 257° West 342 394 17,800 1,800 Climbing Atlanta Center
Tue 11:45:45 AM 33.7794 -85.4833 294° West 354 407 20,100 2,050 Climbing Atlanta Center
Tue 11:46:45 AM 33.8283 -85.5992 297° West 367 422 21,900 1,600 Climbing Atlanta Center
Tue 11:47:45 AM 33.8642 -85.7125 291° West 372 428 23,300 1,350 Climbing Atlanta Center
Tue 11:48:45 AM 33.8919 -85.8331 286° West 383 441 24,600 1,200 Climbing Atlanta Center
Tue 11:49:45 AM 33.9358 -85.9567 293° West 383 441 25,700 1,150 Climbing Atlanta Center
Tue 11:50:45 AM 33.9800 -86.0756 294° West 389 448 26,900 1,150 Climbing Atlanta Center
Tue 11:51:45 AM 34.0300 -86.1969 296° West 396 456 28,000 1,100 Climbing Atlanta Center
Tue 11:52:45 AM 34.0778 -86.3211 295° West 402 463 29,100 1,000 Climbing Atlanta Center
Tue 11:53:45 AM 34.1278 -86.4428 296° West 402 463 30,000 1,050 Climbing Atlanta Center
Tue 11:54:45 AM 34.1775 -86.5647 296° West 402 463 31,200 1,368 Climbing Atlanta Center
Tue 11:55:39 AM 34.2242 -86.6694 298° West 402 463 32,600 1,158 Climbing Memphis Center
Tue 11:56:39 AM 34.2675 -86.7883 294° West 402 463 33,400 900 Climbing Memphis Center
Tue 11:57:39 AM 34.3103 -86.8997 295° West 391 450 34,400 1,000 Climbing Memphis Center
Tue 11:58:39 AM 34.3614 -87.0133 299° West 376 433 35,400 750 Climbing Memphis Center
Tue 11:59:39 AM 34.4186 -87.1244 302° West 389 448 35,900 250 Climbing Memphis Center
Tue 12:00:39 PM 34.4639 -87.2639 292° West 409 471 35,900 100 Level Memphis Center
Tue 12:01:39 PM 34.5044 -87.3908 291° West 410 472 36,100 50 Climbing Memphis Center
Tue 12:02:39 PM 34.5594 -87.5150 298° West 410 472 36,000 -50 Descending Memphis Center
Tue 12:03:39 PM 34.6208 -87.6392 301° West 416 479 36,000 500 Level Memphis Center
Tue 12:04:39 PM 34.6669 -87.7511 297° West 421 484 37,000 900 Climbing Memphis Center
Tue 12:05:39 PM 34.7194 -87.8683 299° West 415 478 37,800 500 Climbing Memphis Center
Tue 12:06:39 PM 34.7761 -87.9881 300° West 407 468 38,000 100 Climbing Memphis Center
Tue 12:07:39 PM 34.8222 -88.1108 295° West 402 463 38,000  Level Memphis Center
Tue 12:08:39 PM 34.8661 -88.2361 293° West 402 463 38,000  Level Memphis Center
Tue 12:09:39 PM 34.8953 -88.3619 286° West 402 463 38,000  Level Memphis Center
Tue 12:10:39 PM 34.9431 -88.4850 295° West 395 455 38,000  Level Memphis Center
Tue 12:11:39 PM 35.0011 -88.6078 300° West 390 449 38,000  Level Memphis Center
Tue 12:12:39 PM 35.0508 -88.7311 296° West 390 449 38,000  Level Memphis Center
Tue 12:13:39 PM 35.1025 -88.8469 299° West 390 449 38,000  Level Memphis Center
Tue 12:14:39 PM 35.1517 -88.9678 296° West 390 449 38,000  Level Memphis Center
Tue 12:15:39 PM 35.1969 -89.0867 295° West 390 449 38,000  Level Memphis Center
Tue 12:16:39 PM 35.2439 -89.2103 295° West 395 455 38,000  Level Memphis Center
Tue 12:17:39 PM 35.2908 -89.3344 295° West 395 455 38,000 -400 Level Memphis Center
Tue 12:18:39 PM 35.3378 -89.4636 294° West 405 466 37,200 -450 Descending Memphis Center
Tue 12:19:39 PM 35.3867 -89.5956 294° West 423 487 37,100 -100 Descending Memphis Center
Tue 12:20:39 PM 35.4356 -89.7250 295° West 423 487 37,000 -50 Descending Memphis Center
Tue 12:21:39 PM 35.4861 -89.8572 295° West 423 487 37,000  Level Memphis Center
Tue 12:22:39 PM 35.5325 -89.9897 293° West 423 487 37,000  Level Memphis Center
Tue 12:23:39 PM 35.5808 -90.1222 294° West 416 479 37,000  Level Memphis Center
Tue 12:24:39 PM 35.6311 -90.2547 295° West 416 479 37,000 -150 Level Memphis Center
Tue 12:25:39 PM 35.6728 -90.3725 294° West 416 479 36,700 -500 Descending Memphis Center
Tue 12:26:39 PM 35.7206 -90.5258 291° West 421 484 36,000 -300 Descending Memphis Center
Tue 12:27:39 PM 35.7703 -90.6642 294° West 432 497 36,100  Climbing Memphis Center
Tue 12:28:39 PM 35.8222 -90.8025 295° West 437 503 36,000 -50 Descending Memphis Center
Tue 12:29:39 PM 35.8694 -90.9386 293° West 437 503 36,000 50 Level Memphis Center
Tue 12:30:39 PM 35.9128 -91.0669 293° West 437 503 36,100 50 Climbing Memphis Center
Tue 12:31:39 PM 35.9639 -91.2033 295° West 437 503 36,100 -50 Level Memphis Center
Tue 12:32:39 PM 36.0108 -91.3372 293° West 437 503 36,000  Descending Memphis Center
Tue 12:33:39 PM 36.0556 -91.4714 292° West 432 497 36,100  Climbing Memphis Center
Tue 12:34:39 PM 36.1025 -91.6056 293° West 427 491 36,000  Descending Memphis Center
Tue 12:35:39 PM 36.1367 -91.7114 292° West 427 491 36,100 50 Climbing Memphis Center
Tue 12:36:39 PM 36.1936 -91.8539 296° West 422 486 36,100  Level Memphis Center
Tue 12:37:39 PM 36.2417 -91.9911 294° West 422 486 36,100 -50 Level Memphis Center
Tue 12:38:39 PM 36.2836 -92.1258 291° West 422 486 36,000  Descending Memphis Center
Tue 12:39:39 PM 36.3297 -92.2581 293° West 422 486 36,100  Climbing Memphis Center
Tue 12:40:39 PM 36.3775 -92.3958 293° West 422 486 36,000  Descending Memphis Center
Tue 12:41:39 PM 36.4233 -92.5286 293° West 428 493 36,100  Climbing Memphis Center
Tue 12:42:39 PM 36.4747 -92.6822 293° West 428 493 36,000 -29 Descending Memphis Center
Tue 12:45:05 PM 36.5772 -92.9847 293° West 426 490 36,000  Level Kansas City Center
Tue 12:46:07 PM 36.6311 -93.1497 292° West 428 493 36,000 48 Level Kansas City Center
Tue 12:47:09 PM 36.6753 -93.2875 292° West 429 494 36,100 48 Climbing Kansas City Center
Tue 12:48:11 PM 36.7219 -93.4275 293° West 434 499 36,100  Level Kansas City Center
Tue 12:49:13 PM 36.7664 -93.5633 292° West 432 497 36,100  Level Kansas City Center
Tue 12:50:15 PM 36.8103 -93.7017 292° West 430 495 36,100 -48 Level Kansas City Center
Tue 12:51:17 PM 36.8653 -93.8678 293° West 428 493 36,000  Descending Kansas City Center
Tue 12:52:19 PM 36.9106 -94.0069 292° West 430 495 36,100  Climbing Kansas City Center
Tue 12:53:21 PM 36.9564 -94.1447 293° West 430 495 36,000 -48 Descending Kansas City Center
Tue 12:54:24 PM 36.9986 -94.2828 291° West 429 494 36,000 48 Level Kansas City Center
Tue 12:55:26 PM 37.0419 -94.4197 292° West 427 491 36,100 48 Climbing Kansas City Center
Tue 12:56:28 PM 37.0850 -94.5572 291° West 426 490 36,100 -48 Level Kansas City Center
Tue 12:57:30 PM 37.1375 -94.7244 292° West 429 494 36,000 -48 Descending Kansas City Center
Tue 12:58:32 PM 37.1814 -94.8658 291° West 434 499 36,000 -532 Level Kansas City Center
Tue 12:59:34 PM 37.2261 -95.0061 292° West 435 501 34,900 -774 Descending Kansas City Center
Tue 01:00:36 PM 37.2706 -95.1497 291° West 440 506 34,400 -339 Descending Kansas City Center
Tue 01:01:38 PM 37.3128 -95.2903 291° West 437 503 34,200 -194 Descending Kansas City Center
Tue 01:02:40 PM 37.3550 -95.4281 291° West 430 495 34,000 -290 Descending Kansas City Center
Tue 01:03:42 PM 37.4064 -95.6017 290° West 435 501 33,600 -871 Descending Kansas City Center
Tue 01:04:44 PM 37.4508 -95.7364 293° West 423 487 32,200 -968 Descending Kansas City Center
Tue 01:05:46 PM 37.4889 -95.8856 288° West 446 513 31,600 -774 Descending Kansas City Center
Tue 01:06:48 PM 37.5306 -96.0244 291° West 430 495 30,600 -1,403 Descending Kansas City Center
Tue 01:07:50 PM 37.5728 -96.1658 291° West 430 495 28,700 -1,548 Descending Kansas City Center
Tue 01:08:52 PM 37.6156 -96.3108 290° West 438 504 27,400 -1,016 Descending Kansas City Center
Tue 01:09:54 PM 37.6675 -96.4686 293° West 430 495 26,600 -907 Descending Kansas City Center
Tue 01:10:18 PM 37.6833 -96.5242 290° West 419 482 26,100 -1,429 Descending Kansas City Center
Tue 01:10:36 PM 37.6961 -96.5672 291° West 419 482 25,600 -1,579 Descending Kansas City Center
Tue 01:10:56 PM 37.7089 -96.6089 291° West 425 489 25,100 -1,574 Descending Kansas City Center
Tue 01:11:37 PM 37.7364 -96.7089 289° West 425 489 24,000 -1,452 Descending Kansas City Center
Tue 01:11:58 PM 37.7500 -96.7492 293° West 427 491 23,600 -1,300 Descending Kansas City Center
Tue 01:12:37 PM 37.7756 -96.8453 289° West 420 483 22,700 -1,452 Descending Kansas City Center
Tue 01:13:00 PM 37.7886 -96.8847 293° West 414 476 22,100 -2,118 Descending Kansas City Center
Tue 01:14:02 PM 37.8286 -97.0175 291° West 406 467 19,700 -2,265 Descending Kansas City Center
Tue 01:14:38 PM 37.8536 -97.1164 288° West 385 443 18,400 -2,129 Descending Kansas City Center
Tue 01:15:04 PM 37.8703 -97.1692 292° West 382 440 17,500 -2,507 Descending Kansas City Center
Tue 01:15:45 PM 37.8875 -97.2464 286° West 353 406 15,600 -2,806 Descending Kansas City Center
Tue 01:16:06 PM 37.8983 -97.2850 290° West 353 406 14,600 -3,049 Descending Kansas City Center
Tue 01:16:46 PM 37.9089 -97.3569 281° West 321 369 12,500 -2,952 Descending Kansas City Center
Tue 01:17:09 PM 37.9153 -97.3961 282° West 325 374 11,500 -2,836 Descending Kansas City Center
Tue 01:17:41 PM 37.9206 -97.4558 276° West 294 338 9,900 -2,903 Descending Kansas City Center
Tue 01:18:11 PM 37.9244 -97.5083 275° West 288 331 8,500 -2,636 Descending Kansas City Center
Tue 01:18:47 PM 37.9294 -97.5686 276° West 277 319 7,000 -2,323 Descending Kansas City Center
Tue 01:19:13 PM 37.9331 -97.6025 278° West 272 313 6,100 -2,291 Descending Kansas City Center
Tue 01:19:42 PM 37.9408 -97.6439 283° West 256 295 4,900 -1,839 Descending Kansas City Center
Tue 01:20:15 PM 37.9508 -97.6953 284° West 252 290 4,200 -1,000 Descending Kansas City Center
Tue 01:20:48 PM 37.9561 -97.7397 279° West 229 264 3,800 -677 Descending Kansas City Center
Tue 01:21:17 PM 37.9617 -97.7706 283° West 224 258 3,500 -590 Descending Kansas City Center
Tue 01:21:49 PM 37.9692 -97.8094 284° West 201 231 3,200 -387 Descending Kansas City Center
Tue 01:22:19 PM 37.9783 -97.8386 292° West 211 243 3,100 -492 Descending Kansas City Center
Tue 01:22:50 PM 38.0008 -97.8578 326° Northwest 172 198 2,700 -871 Descending Kansas City Center
Tue 01:23:21 PM 38.0183 -97.8608 352° North 179 206 2,200 -900 Descending Kansas City Center
Tue 01:23:50 PM 38.0433 -97.8619 358° North 138 159 1,800 -581 Descending Kansas City Center
Tue 01:24:23 PM 38.0594 -97.8628 358° North 154 177 1,600 -364 Descending Kansas City Center
Tue 01:26:00 PM 38.0655 -97.8606 North  Level Estimated
Tue 01:33:00 PM 38.0655 -97.8606 North  Level Estimated

Login

Don't have an account? Register now (free) for customized features, flight alerts, and more!